Paul Haig

Log

Date Distance Time Pace Comments Action
04/20/21 2,251m 10:08.8 2:15.2 View workout
04/20/21 2,299m 10:32.4 2:17.5 View workout
04/20/21 24,068m 52:18.0 2:10.3 View workout
04/18/21 66,389m 2:30:59.0 2:16.4 View workout
04/17/21 33,470m 1:08:29.0 2:02.7 View workout
04/16/21 28,790m 1:00:21.0 2:05.7 View workout
04/15/21 63,625m 2:32:22.0 2:23.6 View workout
04/14/21 25,321m 50:21.0 1:59.3 View workout
04/13/21 61,687m 2:08:30.0 2:04.9 View workout
04/12/21 54,783m 1:55:38.5 2:06.6

hr 122

View workout
04/11/21 52,085m 1:58:04.5 2:16.0 View workout
04/11/21 39,059m 1:17:35.6 1:59.1 View workout
04/08/21 40,081m 1:21:08.0 2:01.4 View workout
04/07/21 24,979m 50:38.0 2:01.6 View workout
04/07/21 60,684m 2:10:33.5 2:09.0 View workout
04/05/21 216m 0:55.5 2:08.4 View workout
04/05/21 409m 1:45.6 2:09.0 View workout
04/05/21 4,016m 19:33.0 2:26.0 View workout
04/05/21 3,660m 16:31.6 2:15.4 View workout
04/04/21 82,539m 3:21:46.4 2:26.6 View workout